createdAt,value
2023-02-28T00:00:17.424Z,9.98
2023-02-28T00:02:45.490Z,9.65
2023-02-28T00:05:14.639Z,9.80
2023-02-28T00:07:42.936Z,9.57
2023-02-28T00:10:12.210Z,9.95
2023-02-28T00:12:41.464Z,9.95
2023-02-28T00:15:10.289Z,9.82
2023-02-28T00:17:38.213Z,10.40
2023-02-28T00:20:09.217Z,9.93
2023-02-28T00:22:37.088Z,10.43
2023-02-28T00:25:05.414Z,10.25
2023-02-28T00:27:33.278Z,9.93
2023-02-28T00:30:02.576Z,9.98
2023-02-28T00:32:31.684Z,10.30
2023-02-28T00:34:59.614Z,9.95
2023-02-28T00:37:27.512Z,9.73
2023-02-28T00:39:55.398Z,10.05
2023-02-28T00:42:23.996Z,10.38
2023-02-28T00:44:51.922Z,10.75
2023-02-28T00:47:21.107Z,10.23
2023-02-28T00:49:49.189Z,9.75
2023-02-28T00:52:17.133Z,10.35
2023-02-28T00:54:44.982Z,10.13
2023-02-28T00:57:12.870Z,10.27
2023-02-28T00:59:41.386Z,10.27
2023-02-28T01:02:09.449Z,10.38
2023-02-28T01:04:39.781Z,11.60
2023-02-28T01:07:07.669Z,10.95
2023-02-28T01:09:35.705Z,11.20
2023-02-28T01:12:03.573Z,10.70
2023-02-28T01:14:31.444Z,11.30
2023-02-28T01:16:59.288Z,11.60
2023-02-28T01:19:27.179Z,11.35
2023-02-28T01:21:56.410Z,11.57
2023-02-28T01:24:24.307Z,12.00
2023-02-28T01:26:52.180Z,12.15
2023-02-28T01:29:20.042Z,11.75
2023-02-28T01:31:48.001Z,12.05
2023-02-28T01:34:15.881Z,11.98
2023-02-28T01:36:43.712Z,11.77
2023-02-28T01:39:14.562Z,12.35
2023-02-28T01:41:42.494Z,12.27
2023-02-28T01:44:43.846Z,11.88
2023-02-28T01:47:11.721Z,12.50
2023-02-28T01:49:39.601Z,12.65
2023-02-28T01:52:07.471Z,12.13
2023-02-28T01:54:36.675Z,12.57
2023-02-28T01:57:07.194Z,13.00
2023-02-28T01:59:36.322Z,12.75
2023-02-28T02:02:04.224Z,12.18
2023-02-28T02:04:36.444Z,13.20
2023-02-28T02:07:04.653Z,12.68
2023-02-28T02:09:32.579Z,13.27
2023-02-28T02:12:01.760Z,12.50
2023-02-28T02:14:45.629Z,13.48
2023-02-28T02:17:20.088Z,12.60
2023-02-28T02:20:18.627Z,13.15
2023-02-28T02:23:07.204Z,12.82
2023-02-28T02:25:35.114Z,13.60
2023-02-28T02:28:16.851Z,13.40
2023-02-28T02:31:01.750Z,13.13
2023-02-28T02:33:50.841Z,13.65
2023-02-28T02:36:21.194Z,13.30
2023-02-28T02:38:50.916Z,13.45
2023-02-28T02:41:20.406Z,13.15
2023-02-28T02:43:49.994Z,13.95
2023-02-28T02:46:21.210Z,13.93
2023-02-28T02:48:49.125Z,14.23
2023-02-28T02:51:17.728Z,13.25
2023-02-28T02:53:50.596Z,13.90
2023-02-28T02:56:19.155Z,14.25
2023-02-28T02:58:47.073Z,14.30
2023-02-28T03:01:17.925Z,13.98
2023-02-28T03:03:47.946Z,13.98
2023-02-28T03:06:16.837Z,14.88
2023-02-28T03:08:44.811Z,14.20
2023-02-28T03:11:16.431Z,14.60
2023-02-28T03:14:00.668Z,14.38
2023-02-28T03:16:38.686Z,14.77
2023-02-28T03:19:26.392Z,14.98
2023-02-28T03:22:01.118Z,14.88
2023-02-28T03:24:31.659Z,14.52
2023-02-28T03:27:14.065Z,14.73
2023-02-28T03:29:44.522Z,14.43
2023-02-28T03:32:18.343Z,14.52
2023-02-28T03:34:50.412Z,14.80
2023-02-28T03:37:19.187Z,14.95
2023-02-28T03:39:49.110Z,14.90
2023-02-28T03:42:20.141Z,14.70
2023-02-28T03:44:48.616Z,14.82
2023-02-28T03:47:18.486Z,14.88
2023-02-28T03:49:48.772Z,14.80
2023-02-28T03:52:16.717Z,15.75
2023-02-28T03:54:46.041Z,15.30
2023-02-28T03:57:15.979Z,15.63
2023-02-28T03:59:46.195Z,14.95
2023-02-28T04:02:14.086Z,15.68
2023-02-28T04:04:49.203Z,15.20
2023-02-28T04:07:17.462Z,15.55
2023-02-28T04:09:45.453Z,15.55
2023-02-28T04:12:13.383Z,15.82
2023-02-28T04:14:41.257Z,15.57
2023-02-28T04:17:10.431Z,15.38
2023-02-28T04:19:38.455Z,15.15
2023-02-28T04:22:06.317Z,15.32
2023-02-28T04:24:34.162Z,15.77
2023-02-28T04:27:02.094Z,15.27
2023-02-28T04:29:30.647Z,15.57
2023-02-28T04:31:59.992Z,15.70
2023-02-28T04:34:29.580Z,15.93
2023-02-28T04:37:11.869Z,15.80
2023-02-28T04:39:40.244Z,15.95
2023-02-28T04:42:08.185Z,15.68
2023-02-28T04:44:36.136Z,15.85
2023-02-28T04:47:04.077Z,15.40
2023-02-28T04:49:33.300Z,16.17
2023-02-28T04:52:01.251Z,15.50
2023-02-28T04:54:29.530Z,15.75
2023-02-28T04:56:57.354Z,15.48
2023-02-28T04:59:25.315Z,16.23
2023-02-28T05:01:53.248Z,15.60
2023-02-28T05:04:21.141Z,16.23
2023-02-28T05:06:50.575Z,16.25
2023-02-28T05:09:18.488Z,16.50
2023-02-28T05:11:46.324Z,15.95
2023-02-28T05:14:15.245Z,15.48
2023-02-28T05:16:43.295Z,15.52
2023-02-28T05:19:11.265Z,16.17
2023-02-28T05:21:39.906Z,15.77
2023-02-28T05:24:11.369Z,15.68
2023-02-28T05:26:40.484Z,15.80
2023-02-28T05:29:08.379Z,14.75
2023-02-28T05:31:36.383Z,16.05
2023-02-28T05:34:05.142Z,16.02
2023-02-28T05:36:33.138Z,15.65
2023-02-28T05:39:00.960Z,16.13
2023-02-28T05:41:30.447Z,16.15
2023-02-28T05:44:00.657Z,15.95
2023-02-28T05:46:28.494Z,15.30
2023-02-28T05:48:56.903Z,16.15
2023-02-28T05:51:24.776Z,15.80
2023-02-28T05:53:52.607Z,15.35
2023-02-28T05:56:20.456Z,15.82
2023-02-28T05:58:49.740Z,15.50
2023-02-28T06:01:33.282Z,16.02
2023-02-28T06:04:01.905Z,15.07
2023-02-28T06:06:30.465Z,15.70
2023-02-28T06:08:58.538Z,16.42
2023-02-28T06:11:28.577Z,16.20
2023-02-28T06:13:58.316Z,15.18
2023-02-28T06:16:26.275Z,15.60
2023-02-28T06:18:56.596Z,15.73
2023-02-28T06:21:24.562Z,16.17
2023-02-28T06:23:52.517Z,15.80
2023-02-28T06:26:20.416Z,15.52
2023-02-28T06:28:48.269Z,15.25
2023-02-28T06:31:18.609Z,18.05
2023-02-28T06:33:46.832Z,18.98
2023-02-28T06:36:15.169Z,21.70
2023-02-28T06:38:43.625Z,20.45
2023-02-28T06:41:11.613Z,20.33
2023-02-28T06:43:41.716Z,21.48
2023-02-28T06:46:10.493Z,19.98
2023-02-28T06:48:39.936Z,20.10
2023-02-28T06:51:09.868Z,18.45
2023-02-28T06:53:38.110Z,19.13
2023-02-28T06:56:07.550Z,18.65
2023-02-28T06:58:35.530Z,18.60
2023-02-28T07:01:03.429Z,18.17
2023-02-28T07:03:33.378Z,16.90
2023-02-28T07:06:05.015Z,18.00
2023-02-28T07:08:33.823Z,18.35
2023-02-28T07:11:01.699Z,17.48
2023-02-28T07:13:29.659Z,17.45
2023-02-28T07:15:57.964Z,16.90
2023-02-28T07:18:26.088Z,16.88
2023-02-28T07:20:54.048Z,18.13
2023-02-28T07:23:23.280Z,16.90
2023-02-28T07:25:51.580Z,16.48
2023-02-28T07:28:19.500Z,16.27
2023-02-28T07:30:47.437Z,17.27
2023-02-28T07:33:15.266Z,16.88
2023-02-28T07:35:43.364Z,16.42
2023-02-28T07:38:11.281Z,15.25
2023-02-28T07:40:40.479Z,16.45
2023-02-28T07:43:08.350Z,16.05
2023-02-28T07:45:36.260Z,16.38
2023-02-28T07:48:04.165Z,15.48
2023-02-28T07:50:32.257Z,15.80
2023-02-28T07:53:00.116Z,16.60
2023-02-28T07:55:28.236Z,15.90
2023-02-28T07:57:58.508Z,16.15
2023-02-28T08:00:26.646Z,15.55
2023-02-28T08:02:54.657Z,15.77
2023-02-28T08:05:23.106Z,15.23
2023-02-28T08:07:51.226Z,15.18
2023-02-28T08:10:19.273Z,15.13
2023-02-28T08:12:47.151Z,15.23
2023-02-28T08:15:16.441Z,15.00
2023-02-28T08:17:44.327Z,14.85
2023-02-28T08:20:13.293Z,14.75
2023-02-28T08:22:41.128Z,14.35
2023-02-28T08:25:09.934Z,13.90
2023-02-28T08:27:38.003Z,13.63
2023-02-28T08:30:06.798Z,14.25
2023-02-28T08:32:36.178Z,13.70
2023-02-28T08:35:04.696Z,13.27
2023-02-28T08:37:32.645Z,13.75
2023-02-28T08:40:00.560Z,13.55
2023-02-28T08:42:28.467Z,13.55
2023-02-28T08:44:56.310Z,12.65
2023-02-28T08:47:24.279Z,13.32
2023-02-28T08:49:53.484Z,12.98
2023-02-28T08:52:21.366Z,12.45
2023-02-28T08:54:49.330Z,12.85
2023-02-28T08:57:17.265Z,12.57
2023-02-28T08:59:45.151Z,12.45
2023-02-28T09:02:14.356Z,12.32
2023-02-28T09:04:42.368Z,12.13
2023-02-28T09:07:11.901Z,12.40
2023-02-28T09:09:55.123Z,12.18
2023-02-28T09:12:23.436Z,12.02
2023-02-28T09:14:51.297Z,12.02
2023-02-28T09:17:19.195Z,11.68
2023-02-28T09:19:47.501Z,11.63
2023-02-28T09:22:17.481Z,11.65
2023-02-28T09:24:46.045Z,11.90
2023-02-28T09:27:13.925Z,11.88
2023-02-28T09:29:41.823Z,11.20
2023-02-28T09:32:09.706Z,11.40
2023-02-28T09:34:38.242Z,11.23
2023-02-28T09:37:06.244Z,10.68
2023-02-28T09:39:35.557Z,10.75
2023-02-28T09:42:03.401Z,10.88
2023-02-28T09:44:32.664Z,10.77
2023-02-28T09:47:01.754Z,10.70
2023-02-28T09:49:34.768Z,10.30
2023-02-28T09:52:05.306Z,10.10
2023-02-28T09:54:35.038Z,10.15
2023-02-28T09:57:07.131Z,10.10
2023-02-28T09:59:41.897Z,9.60
2023-02-28T10:02:19.250Z,9.88
2023-02-28T10:04:52.556Z,9.43
2023-02-28T10:07:26.967Z,10.13
2023-02-28T10:09:58.191Z,9.05
2023-02-28T10:12:26.214Z,9.60
2023-02-28T10:14:54.719Z,9.63
2023-02-28T10:17:24.013Z,9.77
2023-02-28T10:19:57.380Z,12.07
2023-02-28T10:22:27.190Z,11.70
2023-02-28T10:24:57.500Z,11.25
2023-02-28T10:27:26.828Z,13.35
2023-02-28T10:29:55.680Z,14.48
2023-02-28T10:32:25.181Z,15.43
2023-02-28T10:34:53.587Z,16.13
2023-02-28T10:37:21.928Z,16.65
2023-02-28T10:39:49.797Z,15.73
2023-02-28T10:42:27.200Z,15.98
2023-02-28T10:45:09.369Z,15.75
2023-02-28T10:47:37.603Z,15.63
2023-02-28T10:50:05.929Z,15.75
2023-02-28T10:52:39.245Z,15.35
2023-02-28T10:55:17.914Z,14.70
2023-02-28T10:57:48.391Z,14.70
2023-02-28T11:00:17.987Z,13.40
2023-02-28T11:02:47.394Z,13.05
2023-02-28T11:05:27.034Z,13.50
2023-02-28T11:07:55.170Z,12.52
2023-02-28T11:10:24.913Z,12.40
2023-02-28T11:12:57.271Z,11.77
2023-02-28T11:15:26.579Z,11.40
2023-02-28T11:17:57.948Z,11.10
2023-02-28T11:20:26.901Z,10.23
2023-02-28T11:22:55.896Z,10.77
2023-02-28T11:25:24.980Z,10.77
2023-02-28T11:27:54.386Z,10.25
2023-02-28T11:30:26.954Z,9.85
2023-02-28T11:32:54.956Z,9.48
2023-02-28T11:35:25.337Z,9.65
2023-02-28T11:37:53.303Z,9.10
2023-02-28T11:40:23.847Z,9.27
2023-02-28T11:43:00.878Z,8.70
2023-02-28T11:45:38.806Z,8.55
2023-02-28T11:48:11.072Z,9.07
2023-02-28T11:50:46.101Z,8.52
2023-02-28T11:53:19.003Z,8.40
2023-02-28T11:55:48.023Z,7.82
2023-02-28T11:58:34.956Z,8.05
2023-02-28T12:01:11.633Z,7.88
2023-02-28T12:03:45.800Z,8.10
2023-02-28T12:06:22.548Z,8.10
2023-02-28T12:08:58.432Z,8.10
2023-02-28T12:11:33.074Z,7.57
2023-02-28T12:14:24.235Z,7.82
2023-02-28T12:16:58.197Z,7.50
2023-02-28T12:19:27.403Z,7.55
2023-02-28T12:22:13.364Z,7.28
2023-02-28T12:24:49.497Z,7.68
2023-02-28T12:27:18.872Z,7.13
2023-02-28T12:29:51.480Z,7.10
2023-02-28T12:32:22.626Z,6.90
2023-02-28T12:34:53.080Z,7.43
2023-02-28T12:37:23.689Z,7.25
2023-02-28T12:39:53.993Z,7.25
2023-02-28T12:42:24.488Z,6.72
2023-02-28T12:44:54.483Z,6.78
2023-02-28T12:47:22.408Z,6.88
2023-02-28T12:49:52.100Z,6.47
2023-02-28T12:52:21.585Z,6.90
2023-02-28T12:54:52.091Z,6.60
2023-02-28T12:57:21.915Z,6.50
2023-02-28T12:59:51.581Z,6.43
2023-02-28T13:02:49.380Z,6.22
2023-02-28T13:05:41.744Z,6.13
2023-02-28T13:09:03.821Z,6.13
2023-02-28T13:11:32.841Z,6.43
2023-02-28T13:14:05.193Z,6.35
2023-02-28T13:16:57.751Z,6.28
2023-02-28T13:19:29.157Z,6.43
2023-02-28T13:21:57.206Z,5.88
2023-02-28T13:24:43.329Z,5.88
2023-02-28T13:27:36.308Z,6.32
2023-02-28T13:30:19.286Z,6.05
2023-02-28T13:32:47.179Z,5.72
2023-02-28T13:35:32.251Z,6.00
2023-02-28T13:38:26.712Z,6.00
2023-02-28T13:40:54.548Z,5.80
2023-02-28T13:43:34.555Z,6.10
2023-02-28T13:46:10.570Z,6.32
2023-02-28T13:48:38.500Z,6.38
2023-02-28T13:51:33.977Z,5.85
2023-02-28T13:54:03.193Z,6.32
2023-02-28T13:56:39.351Z,6.20
2023-02-28T13:59:14.895Z,6.32
2023-02-28T14:01:57.555Z,5.55
2023-02-28T14:05:02.554Z,5.72
2023-02-28T14:07:36.307Z,5.65
2023-02-28T14:10:09.192Z,5.80
2023-02-28T14:13:00.246Z,6.00
2023-02-28T14:15:44.032Z,6.15
2023-02-28T14:18:25.678Z,5.60
2023-02-28T14:21:03.982Z,5.55
2023-02-28T14:23:54.367Z,6.13
2023-02-28T14:26:31.628Z,5.80
2023-02-28T14:29:11.614Z,5.70
2023-02-28T14:31:40.236Z,5.88
2023-02-28T14:34:19.261Z,5.43
2023-02-28T14:36:47.130Z,5.40
2023-02-28T14:39:17.047Z,5.35
2023-02-28T14:41:45.720Z,5.13
2023-02-28T14:44:17.723Z,5.45
2023-02-28T14:46:46.017Z,5.50
2023-02-28T14:49:17.995Z,5.22
2023-02-28T14:51:46.108Z,5.15
2023-02-28T14:54:17.431Z,5.85
2023-02-28T14:56:45.316Z,4.90
2023-02-28T14:59:28.452Z,4.88
2023-02-28T15:02:21.315Z,5.05
2023-02-28T15:04:56.830Z,5.32
2023-02-28T15:07:29.293Z,5.28
2023-02-28T15:10:13.936Z,4.97
2023-02-28T15:12:41.966Z,5.10
2023-02-28T15:15:16.964Z,4.78
2023-02-28T15:17:46.327Z,4.95
2023-02-28T15:20:14.832Z,4.82
2023-02-28T15:22:42.708Z,5.00
2023-02-28T15:25:12.824Z,4.90
2023-02-28T15:27:43.992Z,5.00
2023-02-28T15:30:17.864Z,4.82
2023-02-28T15:32:45.825Z,4.93
2023-02-28T15:35:21.571Z,5.00
2023-02-28T15:37:50.216Z,4.80
2023-02-28T15:40:24.598Z,4.68
2023-02-28T15:43:05.948Z,4.28
2023-02-28T15:45:39.474Z,4.32
2023-02-28T15:48:14.211Z,5.05
2023-02-28T15:50:42.785Z,4.70
2023-02-28T15:53:15.248Z,4.60
2023-02-28T15:55:44.512Z,4.25
2023-02-28T15:58:13.819Z,4.30
2023-02-28T16:00:42.042Z,4.53
2023-02-28T16:03:25.764Z,4.63
2023-02-28T16:06:27.051Z,4.63
2023-02-28T16:08:54.923Z,4.47
2023-02-28T16:11:24.220Z,4.55
2023-02-28T16:13:52.535Z,4.18
2023-02-28T16:16:20.933Z,4.43
2023-02-28T16:18:48.888Z,4.28
2023-02-28T16:21:16.761Z,4.53
2023-02-28T16:23:44.720Z,4.70
2023-02-28T16:26:18.060Z,4.43
2023-02-28T16:28:47.301Z,4.50
2023-02-28T16:31:17.366Z,4.35
2023-02-28T16:33:45.764Z,4.28
2023-02-28T16:36:18.165Z,4.55
2023-02-28T16:38:46.562Z,4.30
2023-02-28T16:41:19.576Z,4.45
2023-02-28T16:43:50.569Z,4.45
2023-02-28T16:46:18.742Z,4.38
2023-02-28T16:48:46.922Z,4.60
2023-02-28T16:51:15.366Z,4.40
2023-02-28T16:53:43.296Z,4.47
2023-02-28T16:56:17.420Z,4.97
2023-02-28T16:58:46.061Z,5.13
2023-02-28T17:01:15.921Z,5.20
2023-02-28T17:03:43.952Z,5.00
2023-02-28T17:06:18.884Z,4.78
2023-02-28T17:08:47.053Z,5.10
2023-02-28T17:11:14.895Z,5.40
2023-02-28T17:13:42.773Z,5.03
2023-02-28T17:16:17.366Z,5.60
2023-02-28T17:18:45.233Z,5.50
2023-02-28T17:21:16.632Z,5.63
2023-02-28T17:23:45.498Z,5.63
2023-02-28T17:26:16.229Z,5.45
2023-02-28T17:28:44.233Z,5.50
2023-02-28T17:31:12.173Z,5.93
2023-02-28T17:33:41.815Z,6.00
2023-02-28T17:36:12.443Z,6.00
2023-02-28T17:38:40.663Z,6.32
2023-02-28T17:41:08.552Z,6.30
2023-02-28T17:43:36.503Z,6.22
2023-02-28T17:46:06.060Z,6.68
2023-02-28T17:48:34.102Z,6.50
2023-02-28T17:51:03.474Z,6.45
2023-02-28T17:53:31.349Z,7.40
2023-02-28T17:55:59.223Z,7.53
2023-02-28T17:58:27.278Z,7.43
2023-02-28T18:00:55.649Z,7.38
2023-02-28T18:03:25.144Z,7.40
2023-02-28T18:05:53.126Z,7.60
2023-02-28T18:08:23.103Z,7.35
2023-02-28T18:10:51.258Z,7.28
2023-02-28T18:13:19.298Z,7.10
2023-02-28T18:15:48.446Z,7.72
2023-02-28T18:18:16.645Z,7.38
2023-02-28T18:20:44.543Z,8.02
2023-02-28T18:23:12.573Z,7.45
2023-02-28T18:25:42.799Z,7.82
2023-02-28T18:28:11.969Z,7.97
2023-02-28T18:30:40.010Z,7.97
2023-02-28T18:33:08.037Z,7.78
2023-02-28T18:35:36.291Z,7.80
2023-02-28T18:38:06.231Z,7.82
2023-02-28T18:40:34.479Z,8.35
2023-02-28T18:43:03.927Z,8.30
2023-02-28T18:45:32.168Z,8.18
2023-02-28T18:48:00.510Z,8.10
2023-02-28T18:50:29.526Z,8.80
2023-02-28T18:52:59.239Z,8.60
2023-02-28T18:55:27.878Z,8.75
2023-02-28T18:57:55.833Z,8.52
2023-02-28T19:00:25.952Z,8.90
2023-02-28T19:02:54.090Z,9.38
2023-02-28T19:05:22.185Z,8.75
2023-02-28T19:07:50.821Z,8.85
2023-02-28T19:10:19.096Z,8.65
2023-02-28T19:12:47.252Z,9.40
2023-02-28T19:15:15.286Z,8.82
2023-02-28T19:17:46.239Z,9.20
2023-02-28T19:20:14.997Z,9.02
2023-02-28T19:22:44.243Z,9.35
2023-02-28T19:25:12.747Z,9.50
2023-02-28T19:27:40.937Z,9.70
2023-02-28T19:30:14.296Z,10.50
2023-02-28T19:32:43.895Z,9.65
2023-02-28T19:35:12.002Z,9.93
2023-02-28T19:37:40.272Z,10.20
2023-02-28T19:40:11.235Z,9.93
2023-02-28T19:42:39.817Z,10.07
2023-02-28T19:45:10.218Z,10.30
2023-02-28T19:47:38.460Z,10.02
2023-02-28T19:50:08.879Z,10.23
2023-02-28T19:52:36.993Z,10.48
2023-02-28T19:55:05.688Z,10.50
2023-02-28T19:57:33.918Z,10.68
2023-02-28T20:00:01.846Z,9.65
2023-02-28T20:02:29.823Z,10.48
2023-02-28T20:05:01.201Z,11.35
2023-02-28T20:07:31.933Z,10.95
2023-02-28T20:10:00.786Z,10.65
2023-02-28T20:12:28.849Z,10.77
2023-02-28T20:14:57.245Z,11.18
2023-02-28T20:17:25.458Z,10.35
2023-02-28T20:19:53.469Z,10.60
2023-02-28T20:22:21.582Z,10.60
2023-02-28T20:24:51.013Z,11.35
2023-02-28T20:27:18.945Z,10.65
2023-02-28T20:29:47.808Z,10.82
2023-02-28T20:32:15.942Z,11.40
2023-02-28T20:34:43.952Z,11.18
2023-02-28T20:40:04.404Z,11.13
2023-02-28T20:42:32.418Z,12.02
2023-02-28T20:45:00.377Z,11.57
2023-02-28T20:47:28.298Z,10.77
2023-02-28T20:49:56.664Z,11.43
2023-02-28T20:52:24.597Z,11.45
2023-02-28T20:54:52.948Z,11.18
2023-02-28T20:57:22.225Z,11.68
2023-02-28T20:59:50.184Z,11.77
2023-02-28T21:02:18.231Z,11.80
2023-02-28T21:04:46.643Z,11.32
2023-02-28T21:07:15.302Z,11.75
2023-02-28T21:09:43.554Z,11.50
2023-02-28T21:12:11.405Z,11.68
2023-02-28T21:14:40.651Z,12.02
2023-02-28T21:17:10.381Z,11.38
2023-02-28T21:19:38.287Z,11.20
2023-02-28T21:22:06.157Z,11.68
2023-02-28T21:24:34.040Z,12.02
2023-02-28T21:27:02.173Z,11.63
2023-02-28T21:29:30.032Z,11.95
2023-02-28T21:31:59.774Z,11.68
2023-02-28T21:34:28.454Z,11.70
2023-02-28T21:36:56.844Z,11.95
2023-02-28T21:39:28.848Z,11.75
2023-02-28T21:41:57.376Z,11.70
2023-02-28T21:44:28.010Z,10.90
2023-02-28T21:46:57.018Z,11.35
2023-02-28T21:49:26.248Z,11.43
2023-02-28T21:51:54.149Z,11.50
2023-02-28T21:54:22.055Z,12.00
2023-02-28T21:56:50.576Z,11.68
2023-02-28T21:59:18.735Z,11.02
2023-02-28T22:01:46.798Z,11.82
2023-02-28T22:04:21.016Z,12.00
2023-02-28T22:06:51.013Z,12.00
2023-02-28T22:09:19.000Z,12.45
2023-02-28T22:11:46.953Z,11.52
2023-02-28T22:14:14.840Z,11.18
2023-02-28T22:16:52.287Z,11.85
2023-02-28T22:19:21.491Z,12.50
2023-02-28T22:21:51.564Z,12.40
2023-02-28T22:24:23.972Z,11.45
2023-02-28T22:26:52.073Z,11.93
2023-02-28T22:29:19.987Z,12.32
2023-02-28T22:31:48.124Z,11.90
2023-02-28T22:34:16.056Z,12.38
2023-02-28T22:36:44.061Z,11.98
2023-02-28T22:39:13.334Z,12.68
2023-02-28T22:41:41.256Z,11.93
2023-02-28T22:44:09.230Z,12.18
2023-02-28T22:46:37.328Z,12.25
2023-02-28T22:49:05.647Z,12.07
2023-02-28T22:51:33.521Z,11.77
2023-02-28T22:54:02.036Z,11.43
2023-02-28T22:56:31.805Z,11.77
2023-02-28T22:59:00.655Z,12.05
2023-02-28T23:01:29.669Z,11.63
2023-02-28T23:03:57.542Z,12.27
2023-02-28T23:06:26.293Z,11.93
2023-02-28T23:08:55.768Z,12.05
2023-02-28T23:11:24.774Z,12.95
2023-02-28T23:14:00.145Z,12.00
2023-02-28T23:16:29.965Z,11.75
2023-02-28T23:18:58.615Z,12.43
2023-02-28T23:21:26.821Z,12.25
2023-02-28T23:23:54.785Z,11.68
2023-02-28T23:26:22.669Z,11.68
2023-02-28T23:28:50.547Z,11.55
2023-02-28T23:31:19.813Z,12.07
2023-02-28T23:33:47.742Z,11.80
2023-02-28T23:36:16.383Z,11.82
2023-02-28T23:38:46.831Z,11.85
2023-02-28T23:41:15.045Z,12.15
2023-02-28T23:43:42.944Z,11.68
2023-02-28T23:46:11.615Z,11.85
2023-02-28T23:48:40.924Z,11.40
2023-02-28T23:51:09.710Z,12.43
2023-02-28T23:53:38.123Z,12.18
2023-02-28T23:56:06.784Z,11.40
2023-02-28T23:58:34.773Z,12.02
